Time;durP1;ratioP1;P1;durP2;ratioP2;P2;SDS_P1;SDS_P2;PMS_P1;PMS_P2;Temp;Humidity;BMP_temperature;BMP_pressure;BME280_temperature;BME280_humidity;BME280_pressure;Samples;Min_cycle;Max_cycle;Signal;HPM_P1;HPM_P2
2023/04/06 00:01:22;;;;;;;;;;;;;;;1.30;59.69;94378.50;5062243;23;19940;-72
2023/04/06 00:03:23;;;;;;;;;;;;;;;1.26;60.28;94373.66;5061913;23;19928;-71
2023/04/06 00:05:27;;;;;;;;;;;;;;;1.29;60.03;94374.28;5036338;23;19925;-71
2023/04/06 00:07:29;;;;;;;;;;;;;;;1.33;59.82;94367.13;5036661;23;19925;-73
2023/04/06 00:09:31;;;;;;;;;;;;;;;1.36;60.04;94366.91;5062900;23;19929;-72
2023/04/06 00:11:32;;;;;;;;;;;;;;;1.45;59.83;94366.22;5036613;23;20363;-73
2023/04/06 00:13:34;;;;;;;;;;;;;;;1.35;59.64;94355.75;5060517;23;19921;-74
2023/04/06 00:15:35;;;;;;;;;;;;;;;1.34;60.01;94350.72;5062491;23;19932;-71
2023/04/06 00:17:37;;;;;;;;;;;;;;;1.41;59.74;94357.06;5061577;23;19921;-73
2023/04/06 00:19:38;;;;;;;;;;;;;;;1.39;59.66;94352.00;5064370;23;19921;-72
2023/04/06 00:21:40;;;;;;;;;;;;;;;1.40;60.00;94347.69;5062942;23;19925;-73
2023/04/06 00:23:41;;;;;;;;;;;;;;;1.45;59.92;94345.59;5063622;23;19952;-72
2023/04/06 00:25:43;;;;;;;;;;;;;;;1.49;60.11;94348.78;5036917;23;19921;-72
2023/04/06 00:27:45;;;;;;;;;;;;;;;1.54;60.06;94344.06;5063312;23;20578;-73
2023/04/06 00:29:46;;;;;;;;;;;;;;;1.60;59.32;94341.88;5062869;23;19980;-72
2023/04/06 00:31:48;;;;;;;;;;;;;;;1.43;59.20;94340.53;5062619;23;19966;-71
2023/04/06 00:33:49;;;;;;;;;;;;;;;1.47;59.97;94335.16;5062794;23;19932;-71
2023/04/06 00:35:51;;;;;;;;;;;;;;;1.49;59.46;94347.00;5063330;23;19928;-70
2023/04/06 00:37:52;;;;;;;;;;;;;;;1.37;59.41;94355.63;5063419;23;19921;-72
2023/04/06 00:39:54;;;;;;;;;;;;;;;1.37;59.49;94335.00;5064559;23;19921;-72
2023/04/06 00:41:56;;;;;;;;;;;;;;;1.37;59.60;94342.72;5064627;23;19925;-72
2023/04/06 00:43:58;;;;;;;;;;;;;;;1.36;60.21;94333.34;5065193;23;20300;-72
2023/04/06 00:45:59;;;;;;;;;;;;;;;1.41;60.06;94350.13;5063996;23;19925;-71
2023/04/06 00:48:01;;;;;;;;;;;;;;;1.38;59.72;94334.88;5063866;23;20194;-72
2023/04/06 00:50:03;;;;;;;;;;;;;;;1.42;59.70;94336.31;5064574;23;19955;-72
2023/04/06 00:52:05;;;;;;;;;;;;;;;1.45;60.29;94337.84;5039711;23;20427;-72
2023/04/06 00:54:06;;;;;;;;;;;;;;;1.40;59.91;94327.84;5015336;23;20010;-71
2023/04/06 00:56:09;;;;;;;;;;;;;;;1.38;59.92;94331.50;5064242;23;19963;-71
2023/04/06 00:58:11;;;;;;;;;;;;;;;1.49;59.67;94325.53;5063299;23;20005;-73
2023/04/06 01:00:13;;;;;;;;;;;;;;;1.41;59.72;94331.25;5038021;23;20206;-70
2023/04/06 01:02:14;;;;;;;;;;;;;;;1.40;60.00;94330.44;5038125;23;20348;-71
2023/04/06 01:04:16;;;;;;;;;;;;;;;1.45;59.71;94345.59;5039221;23;19972;-72
2023/04/06 01:06:17;;;;;;;;;;;;;;;1.48;60.15;94329.84;5038910;23;19956;-74
2023/04/06 01:08:20;;;;;;;;;;;;;;;1.49;59.57;94328.13;5038387;23;19925;-71
2023/04/06 01:10:25;;;;;;;;;;;;;;;1.46;59.89;94342.06;5062136;23;20356;-71
2023/04/06 01:12:27;;;;;;;;;;;;;;;1.38;59.93;94334.06;5063532;23;19987;-72
2023/04/06 01:14:29;;;;;;;;;;;;;;;1.31;60.31;94325.97;5063141;23;19924;-70
2023/04/06 01:16:30;;;;;;;;;;;;;;;1.33;59.98;94323.25;5064756;23;19951;-71
2023/04/06 01:18:32;;;;;;;;;;;;;;;1.42;60.57;94325.16;5038022;23;19964;-72
2023/04/06 01:20:33;;;;;;;;;;;;;;;1.41;60.38;94318.34;5039143;23;20395;-71
2023/04/06 01:22:35;;;;;;;;;;;;;;;1.41;59.91;94318.34;5063090;23;19925;-72
2023/04/06 01:24:36;;;;;;;;;;;;;;;1.40;60.13;94325.28;5063736;23;19921;-72
2023/04/06 01:26:38;;;;;;;;;;;;;;;1.38;60.08;94327.16;5064107;23;20300;-72
2023/04/06 01:28:39;;;;;;;;;;;;;;;1.34;60.17;94317.16;5064365;23;20252;-72
2023/04/06 01:30:41;;;;;;;;;;;;;;;1.40;60.11;94314.13;5063080;23;19976;-72
2023/04/06 01:32:43;;;;;;;;;;;;;;;1.44;60.39;94323.28;5063244;23;19921;-72
2023/04/06 01:34:45;;;;;;;;;;;;;;;1.57;60.36;94312.88;5038930;23;19953;-70
2023/04/06 01:36:46;;;;;;;;;;;;;;;1.54;60.35;94320.84;5038646;23;19977;-71
2023/04/06 01:38:48;;;;;;;;;;;;;;;1.51;60.11;94310.75;5064074;23;19924;-71
2023/04/06 01:40:49;;;;;;;;;;;;;;;1.52;60.50;94315.78;5063753;23;19996;-70
2023/04/06 01:42:51;;;;;;;;;;;;;;;1.66;60.18;94316.50;5063654;23;20000;-72
2023/04/06 01:44:52;;;;;;;;;;;;;;;1.60;60.24;94310.06;5037317;23;19937;-71
2023/04/06 01:46:54;;;;;;;;;;;;;;;1.59;60.31;94311.84;5062965;23;19960;-70
2023/04/06 01:48:55;;;;;;;;;;;;;;;1.57;60.24;94300.81;5064143;23;19925;-71
2023/04/06 01:50:57;;;;;;;;;;;;;;;1.56;60.28;94303.47;5037742;23;19989;-71
2023/04/06 01:52:59;;;;;;;;;;;;;;;1.51;60.11;94303.00;5063987;23;19931;-71
2023/04/06 01:55:00;;;;;;;;;;;;;;;1.55;60.08;94305.25;5063634;23;19931;-71
2023/04/06 01:57:02;;;;;;;;;;;;;;;1.48;60.19;94300.66;5062868;23;20035;-72
2023/04/06 01:59:03;;;;;;;;;;;;;;;1.53;60.03;94299.38;5036624;23;19932;-71
2023/04/06 02:01:05;;;;;;;;;;;;;;;1.53;60.00;94291.63;5062333;23;19921;-72
2023/04/06 02:03:06;;;;;;;;;;;;;;;1.66;59.52;94291.53;5061095;23;19995;-72
2023/04/06 02:05:08;;;;;;;;;;;;;;;1.69;59.85;94291.28;5062690;23;19921;-72
2023/04/06 02:07:10;;;;;;;;;;;;;;;1.69;59.76;94293.88;5063027;23;20379;-72
2023/04/06 02:09:11;;;;;;;;;;;;;;;1.78;59.51;94295.75;5036209;23;20060;-72
2023/04/06 02:11:13;;;;;;;;;;;;;;;1.69;59.67;94293.06;5062864;23;20266;-71
2023/04/06 02:13:14;;;;;;;;;;;;;;;1.70;59.65;94305.03;5037375;23;20619;-71
2023/04/06 02:15:16;;;;;;;;;;;;;;;1.74;59.58;94298.69;5062715;23;19967;-72
2023/04/06 02:17:17;;;;;;;;;;;;;;;1.69;59.78;94285.31;5062369;23;20268;-72
2023/04/06 02:19:19;;;;;;;;;;;;;;;1.73;59.67;94299.66;5064041;23;19925;-72
2023/04/06 02:21:20;;;;;;;;;;;;;;;1.68;59.53;94293.97;5063958;23;19973;-71
2023/04/06 02:23:22;;;;;;;;;;;;;;;1.78;59.63;94294.94;5062908;23;19920;-71
2023/04/06 02:25:23;;;;;;;;;;;;;;;1.87;59.57;94291.66;5062849;23;19966;-71
2023/04/06 02:27:25;;;;;;;;;;;;;;;1.92;59.36;94299.91;5063153;23;19945;-70
2023/04/06 02:29:27;;;;;;;;;;;;;;;1.87;59.36;94289.06;5062982;23;19984;-72
2023/04/06 02:31:28;;;;;;;;;;;;;;;1.81;59.50;94290.38;5064257;23;19925;-72
2023/04/06 02:33:30;;;;;;;;;;;;;;;1.85;59.58;94288.41;5037432;23;20147;-74
2023/04/06 02:35:31;;;;;;;;;;;;;;;1.87;59.45;94293.44;5064332;23;19921;-72
2023/04/06 02:37:33;;;;;;;;;;;;;;;1.83;59.37;94298.84;5063295;23;19929;-70
2023/04/06 02:39:34;;;;;;;;;;;;;;;1.80;59.47;94293.88;5063654;23;19936;-71
2023/04/06 02:41:36;;;;;;;;;;;;;;;1.90;59.43;94293.22;5063913;23;19949;-71
2023/04/06 02:43:37;;;;;;;;;;;;;;;1.85;59.19;94296.16;5063544;23;19955;-72
2023/04/06 02:45:39;;;;;;;;;;;;;;;1.77;59.50;94293.31;5063307;23;20272;-71
2023/04/06 02:47:41;;;;;;;;;;;;;;;1.82;59.48;94291.19;5062850;23;19937;-73
2023/04/06 02:49:43;;;;;;;;;;;;;;;1.78;59.59;94297.53;5014531;23;19987;-72
2023/04/06 02:51:46;;;;;;;;;;;;;;;1.81;59.56;94294.72;5063048;23;19921;-71
2023/04/06 02:53:47;;;;;;;;;;;;;;;1.62;59.66;94305.63;5063500;23;20252;-71
2023/04/06 02:55:49;;;;;;;;;;;;;;;1.76;59.70;94294.22;5064026;23;20356;-71
2023/04/06 02:57:50;;;;;;;;;;;;;;;1.61;60.06;94291.88;5062854;23;19980;-72
2023/04/06 02:59:52;;;;;;;;;;;;;;;1.74;60.11;94294.38;5062920;23;19949;-72
2023/04/06 03:01:53;;;;;;;;;;;;;;;1.62;59.61;94300.44;5063171;23;19976;-71
2023/04/06 03:03:55;;;;;;;;;;;;;;;1.61;59.92;94291.88;5036579;23;20013;-72
2023/04/06 03:05:58;;;;;;;;;;;;;;;1.52;60.41;94295.13;5063890;23;19932;-72
2023/04/06 03:07:59;;;;;;;;;;;;;;;1.62;60.49;94296.09;5062963;23;19921;-70
2023/04/06 03:10:01;;;;;;;;;;;;;;;1.58;60.03;94292.09;5037649;23;19925;-72
2023/04/06 03:12:03;;;;;;;;;;;;;;;1.56;60.16;94288.00;5063383;23;19932;-73
2023/04/06 03:14:04;;;;;;;;;;;;;;;1.50;60.33;94296.19;5063892;23;19984;-72
2023/04/06 03:16:06;;;;;;;;;;;;;;;1.62;60.11;94301.25;5062642;23;19921;-71
2023/04/06 03:18:08;;;;;;;;;;;;;;;1.70;60.04;94300.69;5036735;23;19925;-70
2023/04/06 03:20:09;;;;;;;;;;;;;;;1.74;59.98;94303.84;5063047;23;19925;-73
2023/04/06 03:22:11;;;;;;;;;;;;;;;1.76;59.88;94299.41;5063053;23;19959;-72
2023/04/06 03:24:13;;;;;;;;;;;;;;;1.78;59.98;94289.78;5062291;23;20012;-72
2023/04/06 03:26:15;;;;;;;;;;;;;;;1.71;59.93;94289.41;5062797;23;20297;-72
2023/04/06 03:28:16;;;;;;;;;;;;;;;1.81;60.05;94284.41;5037199;23;19933;-72
2023/04/06 03:30:18;;;;;;;;;;;;;;;1.70;60.05;94287.78;5063361;23;20383;-72
2023/04/06 03:32:19;;;;;;;;;;;;;;;1.79;59.85;94294.84;5036687;23;19933;-71
2023/04/06 03:34:21;;;;;;;;;;;;;;;1.85;59.85;94290.97;5063040;23;19925;-72
2023/04/06 03:36:22;;;;;;;;;;;;;;;1.83;59.81;94282.53;5062997;23;19980;-72
2023/04/06 03:38:24;;;;;;;;;;;;;;;1.83;59.81;94285.09;5062429;23;19925;-71
2023/04/06 03:40:25;;;;;;;;;;;;;;;1.73;59.65;94281.56;5062906;23;19928;-72
2023/04/06 03:42:27;;;;;;;;;;;;;;;1.78;59.40;94288.00;5063529;23;19921;-73
2023/04/06 03:44:28;;;;;;;;;;;;;;;1.75;59.24;94280.50;5061567;23;20380;-70
2023/04/06 03:46:30;;;;;;;;;;;;;;;1.73;59.51;94286.72;5063720;23;20316;-73
2023/04/06 03:48:31;;;;;;;;;;;;;;;1.79;59.65;94288.84;5062751;23;19921;-72
2023/04/06 03:50:33;;;;;;;;;;;;;;;1.82;59.49;94286.84;5062990;23;19980;-71
2023/04/06 03:52:35;;;;;;;;;;;;;;;1.86;59.27;94282.28;5063475;23;19928;-72
2023/04/06 03:54:36;;;;;;;;;;;;;;;1.90;59.17;94282.88;5063496;23;20219;-73
2023/04/06 03:56:38;;;;;;;;;;;;;;;1.95;59.26;94271.22;5038078;23;19922;-73
2023/04/06 03:58:40;;;;;;;;;;;;;;;2.08;59.21;94278.88;5063715;23;19988;-73
2023/04/06 04:00:41;;;;;;;;;;;;;;;2.13;58.63;94273.34;5013675;23;20412;-74
2023/04/06 04:02:43;;;;;;;;;;;;;;;2.15;58.56;94280.06;5062651;23;19936;-72
2023/04/06 04:04:44;;;;;;;;;;;;;;;2.13;58.39;94268.19;5063464;23;20259;-73
2023/04/06 04:06:46;;;;;;;;;;;;;;;1.93;59.06;94285.22;5063944;23;20001;-73
2023/04/06 04:08:48;;;;;;;;;;;;;;;1.92;58.93;94278.41;5063902;23;19925;-73
2023/04/06 04:10:49;;;;;;;;;;;;;;;1.91;59.09;94290.50;5063734;23;19925;-72
2023/04/06 04:12:51;;;;;;;;;;;;;;;2.09;58.65;94298.63;5063635;23;19972;-72
2023/04/06 04:14:52;;;;;;;;;;;;;;;2.06;58.60;94288.50;5063178;23;20383;-71
2023/04/06 04:16:54;;;;;;;;;;;;;;;1.98;58.74;94286.53;5064774;23;19979;-73
2023/04/06 04:18:55;;;;;;;;;;;;;;;2.03;58.74;94289.56;5039172;23;20434;-72
2023/04/06 04:20:57;;;;;;;;;;;;;;;1.93;58.86;94288.59;5067344;23;19921;-80
2023/04/06 04:22:59;;;;;;;;;;;;;;;1.97;59.24;94286.63;5019632;23;19961;-77
2023/04/06 04:25:00;;;;;;;;;;;;;;;1.94;59.42;94279.94;5067013;23;19921;-79
2023/04/06 04:27:02;;;;;;;;;;;;;;;2.04;58.78;94292.97;5067381;23;19921;-77
2023/04/06 04:29:03;;;;;;;;;;;;;;;2.02;58.77;94285.34;5067535;23;19928;-78
2023/04/06 04:31:05;;;;;;;;;;;;;;;2.04;58.61;94274.88;5069161;23;19921;-81
2023/04/06 04:33:07;;;;;;;;;;;;;;;2.03;58.49;94281.81;5067517;23;20293;-80
2023/04/06 04:35:09;;;;;;;;;;;;;;;2.11;58.43;94290.72;5057270;23;20487;-77
2023/04/06 04:37:10;;;;;;;;;;;;;;;2.05;58.76;94284.28;5069756;23;19956;-77
2023/04/06 04:39:12;;;;;;;;;;;;;;;2.02;58.94;94300.84;5021591;23;19922;-79
2023/04/06 04:41:13;;;;;;;;;;;;;;;1.99;58.61;94295.91;5071337;23;20371;-78
2023/04/06 04:43:15;;;;;;;;;;;;;;;2.01;58.67;94295.78;5068639;23;20414;-78
2023/04/06 04:45:16;;;;;;;;;;;;;;;1.95;58.73;94281.56;5067672;23;20004;-79
2023/04/06 04:47:18;;;;;;;;;;;;;;;1.91;58.93;94290.50;5043315;23;20427;-78
2023/04/06 04:49:19;;;;;;;;;;;;;;;1.94;59.02;94287.69;5043418;23;19929;-78
2023/04/06 04:51:21;;;;;;;;;;;;;;;2.02;59.14;94285.34;5068034;23;20472;-78
2023/04/06 04:53:23;;;;;;;;;;;;;;;1.96;59.32;94282.41;5067590;23;20314;-80
2023/04/06 04:55:25;;;;;;;;;;;;;;;2.02;58.84;94281.91;5020207;23;19921;-80
2023/04/06 04:57:27;;;;;;;;;;;;;;;2.01;58.98;94288.84;5067467;23;20288;-81
2023/04/06 04:59:29;;;;;;;;;;;;;;;2.02;58.86;94292.25;5067921;23;19925;-81
2023/04/06 05:01:31;;;;;;;;;;;;;;;2.05;58.92;94282.50;5068683;23;20273;-83
2023/04/06 05:03:47;;;;;;;;;;;;;;;2.15;58.92;94279.22;5070561;23;19987;-81
2023/04/06 05:05:49;;;;;;;;;;;;;;;2.12;58.92;94284.63;5070102;23;20379;-81
2023/04/06 05:07:51;;;;;;;;;;;;;;;2.17;58.74;94283.34;5069256;23;19932;-82
2023/04/06 05:09:52;;;;;;;;;;;;;;;2.23;58.75;94269.94;5021299;23;19922;-82
2023/04/06 05:11:54;;;;;;;;;;;;;;;2.22;58.62;94283.81;5069439;23;20308;-82
2023/04/06 05:13:56;;;;;;;;;;;;;;;2.27;58.63;94272.28;5071178;23;19925;-80
2023/04/06 05:15:57;;;;;;;;;;;;;;;2.35;58.62;94277.69;5021634;23;19930;-82
2023/04/06 05:17:59;;;;;;;;;;;;;;;2.40;58.38;94276.38;5070719;23;19947;-83
2023/04/06 05:20:00;;;;;;;;;;;;;;;2.41;58.33;94282.34;5044767;23;19980;-83
2023/04/06 05:22:02;;;;;;;;;;;;;;;2.41;58.50;94280.63;5043237;23;19921;-82
2023/04/06 05:24:03;;;;;;;;;;;;;;;2.45;58.81;94281.19;5067245;23;19964;-82
2023/04/06 05:26:05;;;;;;;;;;;;;;;2.44;58.74;94279.56;5067050;23;20396;-81
2023/04/06 05:28:06;;;;;;;;;;;;;;;2.40;58.67;94276.38;5067502;23;19925;-82
2023/04/06 05:30:08;;;;;;;;;;;;;;;2.34;58.97;94282.00;5068789;23;20000;-79
2023/04/06 05:32:09;;;;;;;;;;;;;;;2.22;59.50;94280.41;5068304;23;19924;-81
2023/04/06 05:34:12;;;;;;;;;;;;;;;2.33;59.32;94284.75;5068032;23;19921;-83
2023/04/06 05:36:13;;;;;;;;;;;;;;;2.40;58.90;94276.38;5017573;23;19922;-74
2023/04/06 05:38:15;;;;;;;;;;;;;;;2.50;58.98;94276.50;5039166;23;20429;-74
2023/04/06 05:40:17;;;;;;;;;;;;;;;2.37;59.34;94278.41;5039452;23;20301;-73
2023/04/06 05:42:18;;;;;;;;;;;;;;;2.09;59.60;94277.94;5038429;23;19921;-73
2023/04/06 05:44:20;;;;;;;;;;;;;;;1.96;60.95;94272.09;5063053;23;19965;-73
2023/04/06 05:46:21;;;;;;;;;;;;;;;2.07;60.76;94277.25;5064132;23;19973;-72
2023/04/06 05:48:23;;;;;;;;;;;;;;;1.96;60.51;94282.41;5064053;23;19944;-74
2023/04/06 05:50:24;;;;;;;;;;;;;;;1.87;61.25;94283.91;5064991;23;19929;-71
2023/04/06 05:52:26;;;;;;;;;;;;;;;1.91;60.83;94284.50;5039255;23;19921;-71
2023/04/06 05:54:27;;;;;;;;;;;;;;;2.03;61.22;94273.25;5065046;23;19955;-75
2023/04/06 05:56:30;;;;;;;;;;;;;;;2.21;60.38;94276.97;5039097;23;19925;-73
2023/04/06 05:58:32;;;;;;;;;;;;;;;2.37;60.09;94275.81;5065291;23;19920;-75
2023/04/06 06:00:34;;;;;;;;;;;;;;;2.51;59.74;94274.72;5064917;23;20490;-72
2023/04/06 06:02:35;;;;;;;;;;;;;;;2.41;59.74;94267.69;5065150;23;19932;-76
2023/04/06 06:04:37;;;;;;;;;;;;;;;2.19;60.14;94270.28;5039572;23;19948;-77
2023/04/06 06:06:39;;;;;;;;;;;;;;;1.84;61.33;94272.06;5065656;23;20392;-72
2023/04/06 06:08:41;;;;;;;;;;;;;;;2.01;61.27;94264.78;5064794;23;19921;-76
2023/04/06 06:10:42;;;;;;;;;;;;;;;2.17;61.37;94265.25;5064996;23;19925;-74
2023/04/06 06:12:44;;;;;;;;;;;;;;;2.34;60.96;94276.84;5064010;23;19925;-74
2023/04/06 06:14:46;;;;;;;;;;;;;;;2.01;61.37;94268.19;5063707;23;19921;-75
2023/04/06 06:16:47;;;;;;;;;;;;;;;1.91;62.09;94266.44;5064312;23;19936;-73
2023/04/06 06:18:49;;;;;;;;;;;;;;;2.02;61.65;94271.59;5064167;23;19992;-72
2023/04/06 06:20:50;;;;;;;;;;;;;;;2.25;61.26;94267.22;5064834;23;20344;-74
2023/04/06 06:22:52;;;;;;;;;;;;;;;2.35;60.94;94273.34;5064752;23;19929;-74
2023/04/06 06:24:53;;;;;;;;;;;;;;;2.44;61.66;94267.44;5064642;23;20510;-73
2023/04/06 06:26:55;;;;;;;;;;;;;;;2.63;60.76;94266.81;5063833;23;20521;-73
2023/04/06 06:28:57;;;;;;;;;;;;;;;2.76;60.17;94263.25;5064196;23;19928;-72
2023/04/06 06:30:58;;;;;;;;;;;;;;;2.66;59.99;94269.16;5037387;23;19926;-73
2023/04/06 06:33:00;;;;;;;;;;;;;;;2.65;60.00;94270.09;5037624;23;19973;-73
2023/04/06 06:35:02;;;;;;;;;;;;;;;2.69;59.63;94268.09;5039375;23;19932;-73
2023/04/06 06:37:04;;;;;;;;;;;;;;;2.74;59.25;94271.13;5064488;23;19932;-74
2023/04/06 06:39:06;;;;;;;;;;;;;;;2.37;60.51;94271.47;5064298;23;19921;-73
2023/04/06 06:41:08;;;;;;;;;;;;;;;1.99;61.53;94259.72;5038561;23;19928;-74
2023/04/06 06:43:10;;;;;;;;;;;;;;;2.00;61.91;94271.72;5038041;23;19973;-72
2023/04/06 06:45:11;;;;;;;;;;;;;;;2.25;61.83;94272.41;5061627;23;19921;-73
2023/04/06 06:47:13;;;;;;;;;;;;;;;2.24;62.23;94270.78;5061487;23;19949;-74
2023/04/06 06:49:14;;;;;;;;;;;;;;;2.34;60.74;94278.63;5063899;23;19925;-74
2023/04/06 06:51:16;;;;;;;;;;;;;;;2.40;60.68;94271.19;5064332;23;19921;-73
2023/04/06 06:53:17;;;;;;;;;;;;;;;2.24;61.68;94281.94;5064964;23;19925;-74
2023/04/06 06:55:19;;;;;;;;;;;;;;;2.48;61.00;94277.56;5063923;23;19980;-74
2023/04/06 06:57:21;;;;;;;;;;;;;;;2.55;61.00;94271.75;5038463;23;20325;-75
2023/04/06 06:59:22;;;;;;;;;;;;;;;2.70;60.70;94274.91;5063841;23;19924;-72
2023/04/06 07:01:24;;;;;;;;;;;;;;;2.75;60.70;94272.75;5064753;23;19988;-74
2023/04/06 07:03:26;;;;;;;;;;;;;;;2.68;60.99;94269.03;5063094;23;19956;-73
2023/04/06 07:05:28;;;;;;;;;;;;;;;2.59;61.27;94275.75;5064552;23;19928;-76
2023/04/06 07:07:31;;;;;;;;;;;;;;;2.74;60.91;94267.72;5064462;23;19921;-74
2023/04/06 07:09:33;;;;;;;;;;;;;;;2.80;60.68;94262.06;5038323;23;19949;-75
2023/04/06 07:11:34;;;;;;;;;;;;;;;2.31;61.04;94279.69;5039093;23;20351;-74
2023/04/06 07:13:36;;;;;;;;;;;;;;;1.83;62.59;94277.34;5064189;23;19921;-72
2023/04/06 07:15:37;;;;;;;;;;;;;;;2.18;62.24;94273.81;5063974;23;19973;-74
2023/04/06 07:17:41;;;;;;;;;;;;;;;2.46;60.57;94275.91;5037713;23;20346;-75
2023/04/06 07:19:42;;;;;;;;;;;;;;;2.71;59.78;94270.53;5064881;23;20283;-74
2023/04/06 07:21:44;;;;;;;;;;;;;;;2.51;59.38;94291.03;5064249;23;20086;-76
2023/04/06 07:23:47;;;;;;;;;;;;;;;2.41;60.83;94266.84;5064047;23;19928;-76
2023/04/06 07:25:52;;;;;;;;;;;;;;;2.51;60.13;94278.13;5064877;23;19925;-74
2023/04/06 07:27:53;;;;;;;;;;;;;;;2.56;59.92;94270.00;5039864;23;19925;-76
2023/04/06 07:29:55;;;;;;;;;;;;;;;2.53;60.21;94275.41;5062971;23;19998;-72
2023/04/06 07:31:56;;;;;;;;;;;;;;;2.75;59.85;94271.94;5068433;23;20595;-80
2023/04/06 07:33:58;;;;;;;;;;;;;;;3.04;59.33;94272.22;5042372;23;19925;-73
2023/04/06 07:36:00;;;;;;;;;;;;;;;3.07;58.58;94282.31;5038940;23;19925;-74
2023/04/06 07:38:01;;;;;;;;;;;;;;;3.24;58.38;94268.00;5063785;23;20343;-72
2023/04/06 07:40:03;;;;;;;;;;;;;;;3.45;58.23;94274.00;5064456;23;19944;-78
2023/04/06 07:42:05;;;;;;;;;;;;;;;2.44;59.63;94292.47;5064797;23;20169;-73
2023/04/06 07:44:06;;;;;;;;;;;;;;;2.10;62.57;94273.59;5064879;23;19925;-74
2023/04/06 07:46:08;;;;;;;;;;;;;;;2.28;62.44;94277.34;5063753;23;19921;-73
2023/04/06 07:48:10;;;;;;;;;;;;;;;2.15;62.93;94271.47;5064031;23;19925;-73
2023/04/06 07:50:12;;;;;;;;;;;;;;;2.58;62.50;94260.34;5063922;23;20315;-73
2023/04/06 07:52:13;;;;;;;;;;;;;;;2.60;61.74;94256.72;5064153;23;19921;-74
2023/04/06 07:54:15;;;;;;;;;;;;;;;2.69;61.91;94264.66;5063611;23;19933;-75
2023/04/06 07:56:16;;;;;;;;;;;;;;;2.79;60.96;94263.00;5064913;23;19928;-74
2023/04/06 07:58:18;;;;;;;;;;;;;;;2.74;61.34;94265.16;5063120;23;19921;-77
2023/04/06 08:00:20;;;;;;;;;;;;;;;2.52;62.45;94271.16;5063752;23;19945;-75
2023/04/06 08:02:21;;;;;;;;;;;;;;;2.40;62.67;94278.97;5037383;23;19925;-75
2023/04/06 08:04:23;;;;;;;;;;;;;;;2.10;63.50;94268.44;5064219;23;20038;-75
2023/04/06 08:06:25;;;;;;;;;;;;;;;1.94;64.27;94264.44;5038277;23;20305;-75
2023/04/06 08:08:26;;;;;;;;;;;;;;;2.62;63.06;94266.94;5037971;23;19925;-73
2023/04/06 08:10:28;;;;;;;;;;;;;;;3.17;61.27;94254.75;5064109;23;19985;-74
2023/04/06 08:12:29;;;;;;;;;;;;;;;2.97;61.17;94263.28;5064038;23;19929;-74
2023/04/06 08:14:31;;;;;;;;;;;;;;;3.09;61.43;94259.72;5037567;23;19932;-75
2023/04/06 08:16:32;;;;;;;;;;;;;;;2.96;60.29;94266.81;5063182;23;20315;-74
2023/04/06 08:18:34;;;;;;;;;;;;;;;3.28;60.05;94271.97;5063312;23;20057;-73
2023/04/06 08:20:35;;;;;;;;;;;;;;;3.48;58.78;94268.59;5064540;23;20244;-72
2023/04/06 08:22:37;;;;;;;;;;;;;;;3.58;58.29;94262.66;5063594;23;19977;-73
2023/04/06 08:24:39;;;;;;;;;;;;;;;3.91;57.24;94264.16;5064981;23;19921;-74
2023/04/06 08:26:40;;;;;;;;;;;;;;;4.03;56.76;94267.50;5064235;23;19928;-74
2023/04/06 08:28:42;;;;;;;;;;;;;;;4.33;55.78;94271.84;5064299;23;19929;-74
2023/04/06 08:30:47;;;;;;;;;;;;;;;4.37;56.29;94269.84;5062233;23;20063;-75
2023/04/06 08:32:49;;;;;;;;;;;;;;;4.38;56.47;94269.69;5063798;23;19921;-74
2023/04/06 08:34:52;;;;;;;;;;;;;;;4.33;55.66;94276.22;5039139;23;19925;-74
2023/04/06 08:36:54;;;;;;;;;;;;;;;4.46;54.73;94258.66;5038856;23;19993;-72
2023/04/06 08:38:56;;;;;;;;;;;;;;;4.62;54.09;94265.91;5064016;23;19929;-74
2023/04/06 08:40:57;;;;;;;;;;;;;;;4.38;55.31;94267.09;5063894;23;19928;-74
2023/04/06 08:42:59;;;;;;;;;;;;;;;4.54;54.15;94289.94;5038495;23;20103;-74
2023/04/06 08:45:01;;;;;;;;;;;;;;;4.47;53.60;94268.91;5063605;23;19945;-76
2023/04/06 08:47:02;;;;;;;;;;;;;;;4.69;53.14;94274.81;5037627;23;19925;-75
2023/04/06 08:49:07;;;;;;;;;;;;;;;4.61;53.11;94262.50;5038862;23;19995;-76
2023/04/06 08:51:09;;;;;;;;;;;;;;;4.69;52.66;94267.84;5065199;23;19925;-76
2023/04/06 08:53:10;;;;;;;;;;;;;;;4.17;54.70;94280.09;5015326;23;19925;-73
2023/04/06 08:55:12;;;;;;;;;;;;;;;4.39;53.22;94265.31;5042836;23;19955;-83
2023/04/06 08:57:13;;;;;;;;;;;;;;;4.36;53.35;94278.53;5044946;23;19921;-80
2023/04/06 08:59:15;;;;;;;;;;;;;;;4.33;54.20;94281.41;5072553;23;19928;-82
2023/04/06 09:01:18;;;;;;;;;;;;;;;4.49;54.18;94266.97;5071288;23;19952;-83
2023/04/06 09:03:19;;;;;;;;;;;;;;;4.78;53.23;94263.63;5069240;23;19987;-81
2023/04/06 09:05:21;;;;;;;;;;;;;;;5.07;52.61;94253.25;5073044;23;19931;-80
2023/04/06 09:07:23;;;;;;;;;;;;;;;5.16;51.40;94264.59;5072657;23;19921;-83
2023/04/06 09:09:25;;;;;;;;;;;;;;;5.15;51.49;94260.38;5049140;23;19926;-84
2023/04/06 09:11:27;;;;;;;;;;;;;;;5.27;52.08;94250.66;5074180;23;19945;-84
2023/04/06 09:13:29;;;;;;;;;;;;;;;5.16;52.16;94258.59;5075899;23;19921;-81
2023/04/06 09:15:30;;;;;;;;;;;;;;;5.00;51.40;94249.56;5072194;23;20197;-79
2023/04/06 09:17:33;;;;;;;;;;;;;;;4.71;52.52;94265.94;5074552;23;19928;-79
2023/04/06 09:19:45;;;;;;;;;;;;;;;4.69;53.03;94260.06;5047469;23;19945;-81
2023/04/06 09:21:46;;;;;;;;;;;;;;;4.67;53.05;94256.78;5051163;23;19956;-81
2023/04/06 09:23:57;;;;;;;;;;;;;;;4.76;52.79;94257.75;5048421;23;19989;-82
2023/04/06 09:26:12;;;;;;;;;;;;;;;4.70;53.40;94256.50;5024659;23;19968;-82
2023/04/06 09:28:13;;;;;;;;;;;;;;;4.60;53.67;94260.03;5068694;23;19960;-82
2023/04/06 09:30:16;;;;;;;;;;;;;;;4.80;52.99;94266.91;5045629;23;19921;-77
2023/04/06 09:32:20;;;;;;;;;;;;;;;5.24;52.10;94256.94;5069782;23;19924;-81
2023/04/06 09:34:23;;;;;;;;;;;;;;;5.32;51.79;94254.50;5070017;23;19988;-82
2023/04/06 09:36:31;;;;;;;;;;;;;;;5.09;51.35;94250.53;5070058;23;20400;-79
2023/04/06 09:38:33;;;;;;;;;;;;;;;5.19;51.30;94259.16;5043406;23;19925;-81
2023/04/06 09:40:35;;;;;;;;;;;;;;;5.21;51.47;94251.22;5043438;23;20000;-79
2023/04/06 09:42:36;;;;;;;;;;;;;;;5.10;51.57;94244.41;5070494;23;19929;-81
2023/04/06 09:44:38;;;;;;;;;;;;;;;5.24;51.12;94248.34;5020389;23;20017;-79
2023/04/06 09:46:40;;;;;;;;;;;;;;;5.36;50.36;94249.03;5072977;23;19921;-78
2023/04/06 09:49:03;;;;;;;;;;;;;;;5.37;50.68;94242.88;5071185;23;19921;-81
2023/04/06 09:51:05;;;;;;;;;;;;;;;5.57;50.58;94241.91;5072723;23;19925;-79
2023/04/06 09:53:06;;;;;;;;;;;;;;;5.73;50.40;94241.31;5045951;23;20000;-81
2023/04/06 09:55:08;;;;;;;;;;;;;;;5.49;50.34;94246.97;5047768;23;20533;-82
2023/04/06 09:57:21;;;;;;;;;;;;;;;5.72;50.10;94244.84;5048688;23;19928;-81
2023/04/06 09:59:28;;;;;;;;;;;;;;;5.64;50.48;94253.34;5068535;23;19925;-76
2023/04/06 10:01:30;;;;;;;;;;;;;;;6.02;49.65;94236.03;5040266;23;20324;-73
2023/04/06 10:03:32;;;;;;;;;;;;;;;6.02;49.45;94245.63;5064851;23;19967;-73
2023/04/06 10:05:37;;;;;;;;;;;;;;;6.17;48.12;94243.38;5065605;23;20077;-74
2023/04/06 10:07:39;;;;;;;;;;;;;;;5.91;48.12;94241.38;5039202;23;19921;-75
2023/04/06 10:10:00;;;;;;;;;;;;;;;5.89;48.53;94246.75;5043044;23;19925;-76
2023/04/06 10:12:03;;;;;;;;;;;;;;;5.56;48.39;94253.22;5038498;23;19921;-77
2023/04/06 10:14:04;;;;;;;;;;;;;;;5.42;48.68;94245.84;5064818;23;19947;-74
2023/04/06 10:16:06;;;;;;;;;;;;;;;5.38;49.10;94239.28;5037996;23;19925;-73
2023/04/06 10:18:08;;;;;;;;;;;;;;;5.42;48.37;94259.69;5038538;23;19974;-73
2023/04/06 10:20:36;;;;;;;;;;;;;;;5.52;48.71;94238.88;5039461;23;20162;-76
2023/04/06 10:22:43;;;;;;;;;;;;;;;5.48;49.34;94237.50;5061008;23;19925;-75
2023/04/06 10:24:44;;;;;;;;;;;;;;;5.20;50.07;94241.78;5064466;23;19921;-74
2023/04/06 10:27:01;;;;;;;;;;;;;;;5.32;49.86;94233.72;5038988;23;19921;-74
2023/04/06 10:29:03;;;;;;;;;;;;;;;5.36;49.20;94236.06;5038920;23;19928;-77
2023/04/06 10:31:05;;;;;;;;;;;;;;;5.40;49.51;94221.78;5063774;23;19925;-74
2023/04/06 10:33:16;;;;;;;;;;;;;;;5.19;50.44;94235.78;5062133;23;19925;-76
2023/04/06 10:35:18;;;;;;;;;;;;;;;5.36;49.28;94233.44;5038367;23;20340;-72
2023/04/06 10:37:21;;;;;;;;;;;;;;;5.52;49.53;94231.91;5039083;23;19921;-75
2023/04/06 10:39:24;;;;;;;;;;;;;;;5.22;50.26;94216.50;5064063;23;19921;-73
2023/04/06 10:41:35;;;;;;;;;;;;;;;5.16;50.30;94217.84;5037614;23;20013;-75
2023/04/06 10:43:37;;;;;;;;;;;;;;;5.03;50.09;94209.53;5036300;23;20032;-75
2023/04/06 10:45:39;;;;;;;;;;;;;;;5.16;50.66;94223.06;5043271;23;19984;-83